Time;durP1;ratioP1;P1;durP2;ratioP2;P2;SDS_P1;SDS_P2;PMS_P1;PMS_P2;Temp;Humidity;BMP_temperature;BMP_pressure;BME280_temperature;BME280_humidity;BME280_pressure;Samples;Min_cycle;Max_cycle;Signal;HPM_P1;HPM_P2
2023/12/18 00:00:08;;;;;;;21.17;9.47;;;7.60;99.90;;;;;;5010583;28;20301;-80
2023/12/18 00:02:35;;;;;;;18.43;9.13;;;7.60;99.90;;;;;;5024957;28;20304;-80
2023/12/18 00:05:02;;;;;;;20.90;9.93;;;7.60;99.90;;;;;;4995067;28;20593;-81
2023/12/18 00:07:30;;;;;;;17.63;9.50;;;7.60;99.90;;;;;;5012037;28;20265;-81
2023/12/18 00:09:57;;;;;;;23.07;10.07;;;7.60;99.90;;;;;;5000971;28;20283;-80
2023/12/18 00:12:23;;;;;;;21.57;10.10;;;7.60;99.90;;;;;;4988762;28;20804;-81
2023/12/18 00:14:50;;;;;;;20.33;9.60;;;7.60;99.90;;;;;;5011704;28;20742;-80
2023/12/18 00:17:17;;;;;;;24.33;11.43;;;7.60;99.90;;;;;;5003544;28;20224;-79
2023/12/18 00:19:44;;;;;;;23.43;11.43;;;7.60;99.90;;;;;;5002985;28;20222;-80
2023/12/18 00:22:12;;;;;;;24.40;10.20;;;7.60;99.90;;;;;;5003559;28;20525;-81
2023/12/18 00:24:40;;;;;;;21.93;10.20;;;7.50;99.90;;;;;;5012764;28;20761;-80
2023/12/18 00:27:06;;;;;;;17.30;9.73;;;7.50;99.90;;;;;;5023550;28;20238;-80
2023/12/18 00:29:34;;;;;;;21.23;9.77;;;7.50;99.90;;;;;;5010918;28;20656;-81
2023/12/18 00:32:00;;;;;;;19.97;10.50;;;7.50;99.90;;;;;;5006849;28;20247;-81
2023/12/18 00:34:27;;;;;;;20.60;11.03;;;7.50;99.90;;;;;;5024064;28;20247;-81
2023/12/18 00:36:54;;;;;;;19.43;11.00;;;7.50;99.90;;;;;;5011048;28;20230;-81
2023/12/18 00:39:21;;;;;;;18.70;10.37;;;7.50;99.90;;;;;;5015288;28;20231;-81
2023/12/18 00:41:49;;;;;;;25.93;10.03;;;7.50;99.90;;;;;;5011151;28;20925;-81
2023/12/18 00:44:16;;;;;;;21.17;10.33;;;7.50;99.90;;;;;;5009092;28;20230;-81
2023/12/18 00:46:43;;;;;;;24.33;11.20;;;7.50;99.90;;;;;;5014170;28;20263;-82
2023/12/18 00:49:10;;;;;;;27.73;11.37;;;7.50;99.90;;;;;;5028616;28;20237;-83
2023/12/18 00:51:37;;;;;;;18.53;10.53;;;7.40;99.90;;;;;;5005109;28;20226;-81
2023/12/18 00:54:04;;;;;;;26.07;10.33;;;7.40;99.90;;;;;;5025228;28;20232;-80
2023/12/18 00:56:31;;;;;;;19.77;11.10;;;7.50;99.90;;;;;;5008483;28;20231;-80
2023/12/18 00:58:59;;;;;;;21.70;10.80;;;7.50;99.90;;;;;;5011968;28;20309;-80
2023/12/18 01:01:25;;;;;;;16.70;10.50;;;7.40;99.90;;;;;;5009164;28;20288;-80
2023/12/18 01:03:52;;;;;;;23.90;11.17;;;7.40;99.90;;;;;;5010788;28;20701;-80
2023/12/18 01:06:19;;;;;;;23.13;12.17;;;7.40;99.90;;;;;;5002045;28;20240;-81
2023/12/18 01:08:46;;;;;;;25.57;11.13;;;7.40;99.90;;;;;;5006257;28;20235;-80
2023/12/18 01:11:12;;;;;;;22.93;11.10;;;7.40;99.90;;;;;;5006664;28;20540;-80
2023/12/18 01:13:40;;;;;;;21.53;10.40;;;7.40;99.90;;;;;;5005278;28;20276;-80
2023/12/18 01:16:08;;;;;;;22.97;10.83;;;7.40;99.90;;;;;;5017209;28;20230;-80
2023/12/18 01:18:35;;;;;;;21.73;11.10;;;7.40;99.90;;;;;;5006364;28;20718;-80
2023/12/18 01:21:04;;;;;;;20.53;10.83;;;7.40;99.90;;;;;;5030924;28;20214;-80
2023/12/18 01:23:30;;;;;;;26.10;12.07;;;7.40;99.90;;;;;;5027056;28;20227;-79
2023/12/18 01:25:57;;;;;;;19.30;10.17;;;7.40;99.90;;;;;;4990835;28;20931;-80
2023/12/18 01:28:24;;;;;;;20.90;11.20;;;7.40;99.90;;;;;;5012179;28;20321;-80
2023/12/18 01:30:51;;;;;;;24.03;11.07;;;7.40;99.90;;;;;;5004130;28;20250;-82
2023/12/18 01:33:19;;;;;;;19.70;10.70;;;7.40;99.90;;;;;;5008018;28;20223;-82
2023/12/18 01:35:46;;;;;;;21.63;10.47;;;7.40;99.90;;;;;;5023781;28;20234;-81
2023/12/18 01:38:12;;;;;;;20.37;10.43;;;7.40;99.90;;;;;;5022506;28;20215;-82
2023/12/18 01:40:39;;;;;;;22.53;10.70;;;7.40;99.90;;;;;;5023318;28;20249;-81
2023/12/18 01:43:24;;;;;;;19.67;10.47;;;7.40;99.90;;;;;;5006852;28;20230;-82
2023/12/18 01:45:55;;;;;;;19.07;11.23;;;7.40;99.90;;;;;;5028727;28;20508;-81
2023/12/18 01:48:23;;;;;;;24.43;10.97;;;7.40;99.90;;;;;;5024072;28;20533;-82
2023/12/18 01:50:51;;;;;;;20.17;10.97;;;7.40;99.90;;;;;;5026479;28;20488;-82
2023/12/18 01:53:18;;;;;;;18.87;10.67;;;7.40;99.90;;;;;;5001976;28;20506;-82
2023/12/18 01:55:45;;;;;;;20.17;10.67;;;7.50;99.90;;;;;;4988024;28;20230;-82
2023/12/18 01:58:14;;;;;;;28.10;10.70;;;7.50;99.90;;;;;;4968490;28;20227;-81
2023/12/18 02:00:42;;;;;;;23.10;10.33;;;7.40;99.90;;;;;;5005001;28;20395;-81
2023/12/18 02:03:10;;;;;;;23.80;11.30;;;7.50;99.90;;;;;;5026384;28;20235;-80
2023/12/18 02:05:39;;;;;;;23.10;11.53;;;7.50;99.90;;;;;;5029653;28;20222;-80
2023/12/18 02:08:07;;;;;;;18.93;10.87;;;7.40;99.90;;;;;;5026812;28;20308;-81
2023/12/18 02:10:35;;;;;;;21.07;10.80;;;7.50;99.90;;;;;;5007096;28;20220;-81
2023/12/18 02:13:01;;;;;;;20.00;11.10;;;7.50;99.90;;;;;;5018694;28;20791;-80
2023/12/18 02:15:27;;;;;;;19.40;10.80;;;7.50;99.90;;;;;;4990680;28;20240;-81
2023/12/18 02:17:54;;;;;;;22.70;10.77;;;7.50;99.90;;;;;;4991698;28;20846;-81
2023/12/18 02:20:21;;;;;;;24.00;11.33;;;7.50;99.90;;;;;;4996007;28;20318;-81
2023/12/18 02:22:53;;;;;;;24.57;12.70;;;7.40;99.90;;;;;;5012743;28;20223;-82
2023/12/18 02:25:21;;;;;;;24.70;11.43;;;7.40;99.90;;;;;;5006411;28;20221;-82
2023/12/18 02:27:49;;;;;;;22.27;11.80;;;7.40;99.90;;;;;;5008953;28;20232;-81
2023/12/18 02:30:17;;;;;;;22.80;12.00;;;7.50;99.90;;;;;;5010948;28;20227;-81
2023/12/18 02:32:44;;;;;;;26.27;13.27;;;7.50;99.90;;;;;;4986755;28;20291;-82
2023/12/18 02:35:11;;;;;;;20.17;11.77;;;7.40;99.90;;;;;;5006871;28;20244;-82
2023/12/18 02:37:39;;;;;;;22.97;12.53;;;7.40;99.90;;;;;;5000914;28;20294;-82
2023/12/18 02:40:08;;;;;;;20.20;12.27;;;7.40;99.90;;;;;;5003641;28;20224;-82
2023/12/18 02:42:35;;;;;;;21.17;12.20;;;7.40;99.90;;;;;;4993538;28;20230;-82
2023/12/18 02:45:02;;;;;;;23.47;12.23;;;7.40;99.90;;;;;;5016683;28;20966;-82
2023/12/18 02:47:29;;;;;;;24.83;13.17;;;7.30;99.90;;;;;;5013128;28;20234;-82
2023/12/18 02:49:56;;;;;;;25.10;12.63;;;7.30;99.90;;;;;;5016724;28;20233;-82
2023/12/18 02:52:23;;;;;;;24.00;13.47;;;7.30;99.90;;;;;;5006465;28;20235;-82
2023/12/18 02:54:50;;;;;;;24.53;13.07;;;7.30;99.90;;;;;;5010556;28;20238;-82
2023/12/18 02:57:18;;;;;;;24.00;12.43;;;7.30;99.90;;;;;;5011878;28;20244;-81
2023/12/18 02:59:45;;;;;;;22.67;12.90;;;7.30;99.90;;;;;;5024790;28;20241;-81
2023/12/18 03:02:11;;;;;;;25.83;13.23;;;7.20;99.90;;;;;;5005473;28;20324;-81
2023/12/18 03:04:40;;;;;;;31.27;13.80;;;7.20;99.90;;;;;;5003122;28;20227;-81
2023/12/18 03:07:07;;;;;;;27.47;13.20;;;7.20;99.90;;;;;;5009772;28;20241;-81
2023/12/18 03:09:34;;;;;;;27.97;12.97;;;7.20;99.90;;;;;;5003679;28;20314;-81
2023/12/18 03:12:01;;;;;;;29.20;13.20;;;7.20;99.90;;;;;;5006624;28;20224;-82
2023/12/18 03:14:29;;;;;;;25.80;12.13;;;7.20;99.90;;;;;;5006990;28;20226;-81
2023/12/18 03:16:56;;;;;;;22.03;11.57;;;7.20;99.90;;;;;;5008545;28;20227;-81
2023/12/18 03:19:23;;;;;;;24.87;12.60;;;7.20;99.90;;;;;;5010284;28;20259;-81
2023/12/18 03:21:49;;;;;;;23.57;12.80;;;7.20;99.90;;;;;;5025975;28;20249;-82
2023/12/18 03:24:16;;;;;;;22.63;12.67;;;7.30;99.90;;;;;;5005090;28;20233;-82
2023/12/18 03:26:43;;;;;;;27.13;12.57;;;7.20;99.90;;;;;;5005934;28;20324;-81
2023/12/18 03:29:11;;;;;;;22.83;12.50;;;7.20;99.90;;;;;;5019243;28;20222;-81
2023/12/18 03:31:39;;;;;;;23.73;12.93;;;7.20;99.90;;;;;;5009154;28;20250;-81
2023/12/18 03:34:06;;;;;;;24.20;12.97;;;7.30;99.90;;;;;;4995068;28;20314;-80
2023/12/18 03:36:32;;;;;;;22.77;12.27;;;7.20;99.90;;;;;;5009731;28;20806;-80
2023/12/18 03:38:59;;;;;;;23.13;12.10;;;7.30;99.90;;;;;;5010189;28;20256;-80
2023/12/18 03:41:26;;;;;;;21.40;12.73;;;7.30;99.90;;;;;;5014595;28;20475;-80
2023/12/18 03:43:53;;;;;;;19.87;12.83;;;7.30;99.90;;;;;;5021232;28;20841;-80
2023/12/18 03:46:20;;;;;;;23.37;12.23;;;7.30;99.90;;;;;;5018240;28;20242;-82
2023/12/18 03:48:49;;;;;;;23.63;12.60;;;7.30;99.90;;;;;;5020679;28;20233;-82
2023/12/18 03:51:16;;;;;;;19.23;13.03;;;7.30;99.90;;;;;;4995270;28;20220;-81
2023/12/18 03:53:43;;;;;;;23.47;13.83;;;7.30;99.90;;;;;;4999243;28;20236;-81
2023/12/18 03:56:10;;;;;;;29.27;13.23;;;7.30;99.90;;;;;;4990013;28;20907;-80
2023/12/18 03:58:37;;;;;;;25.10;13.90;;;7.30;99.90;;;;;;5007016;28;20330;-81
2023/12/18 04:01:04;;;;;;;19.60;12.77;;;7.30;99.90;;;;;;4990947;28;20317;-81
2023/12/18 04:03:31;;;;;;;22.20;14.43;;;7.30;99.90;;;;;;4997433;28;20300;-81
2023/12/18 04:05:59;;;;;;;25.70;14.37;;;7.30;99.90;;;;;;5005453;28;20767;-81
2023/12/18 04:08:26;;;;;;;21.83;14.03;;;7.30;99.90;;;;;;5012197;28;20275;-81
2023/12/18 04:10:53;;;;;;;22.57;14.17;;;7.30;99.90;;;;;;5007903;28;20266;-81
2023/12/18 04:13:20;;;;;;;23.23;14.50;;;7.20;99.90;;;;;;4990344;28;20242;-81
2023/12/18 04:15:47;;;;;;;24.90;14.87;;;7.20;99.90;;;;;;5002246;28;20305;-82
2023/12/18 04:18:14;;;;;;;32.67;16.07;;;7.20;99.90;;;;;;5006351;28;20250;-81
2023/12/18 04:20:40;;;;;;;22.10;14.90;;;7.20;99.90;;;;;;5022966;28;20246;-81
2023/12/18 04:23:08;;;;;;;30.13;15.20;;;7.20;99.90;;;;;;5024738;28;20302;-81
2023/12/18 04:25:35;;;;;;;25.73;15.37;;;7.20;99.90;;;;;;5023846;28;20236;-81
2023/12/18 04:28:02;;;;;;;30.43;15.30;;;7.10;99.90;;;;;;5025241;28;20227;-81
2023/12/18 04:30:29;;;;;;;20.23;14.80;;;7.10;99.90;;;;;;5001842;28;20314;-81
2023/12/18 04:32:56;;;;;;;26.93;15.77;;;7.10;99.90;;;;;;5012739;28;20286;-81
2023/12/18 04:35:23;;;;;;;26.97;15.70;;;7.10;99.90;;;;;;5005320;28;20633;-80
2023/12/18 04:37:50;;;;;;;26.50;15.27;;;7.10;99.90;;;;;;5029844;28;20749;-80
2023/12/18 04:40:18;;;;;;;27.17;15.43;;;7.10;99.90;;;;;;5027146;28;20315;-81
2023/12/18 04:42:44;;;;;;;25.37;16.67;;;7.10;99.90;;;;;;5029158;28;20232;-81
2023/12/18 04:45:12;;;;;;;27.00;15.53;;;7.00;99.90;;;;;;5024317;28;20741;-80
2023/12/18 04:47:39;;;;;;;24.83;16.60;;;7.10;99.90;;;;;;5013016;28;20251;-80
2023/12/18 04:50:07;;;;;;;30.87;15.70;;;7.00;99.90;;;;;;5009827;28;20225;-81
2023/12/18 04:52:34;;;;;;;27.93;16.50;;;7.00;99.90;;;;;;5028648;28;20386;-81
2023/12/18 04:55:01;;;;;;;27.40;16.70;;;7.00;99.90;;;;;;5027636;28;20223;-82
2023/12/18 04:57:30;;;;;;;28.83;16.43;;;7.00;99.90;;;;;;5014944;28;20228;-80
2023/12/18 04:59:58;;;;;;;24.00;16.53;;;7.00;99.90;;;;;;5013281;28;20224;-81
2023/12/18 05:02:25;;;;;;;27.77;17.23;;;7.00;99.90;;;;;;4995432;28;20666;-80
2023/12/18 05:04:52;;;;;;;25.27;16.40;;;7.00;99.90;;;;;;5014253;28;20502;-81
2023/12/18 05:07:19;;;;;;;29.77;16.93;;;7.00;99.90;;;;;;5007549;28;20244;-81
2023/12/18 05:09:46;;;;;;;23.03;16.67;;;7.00;99.90;;;;;;4995348;28;20325;-81
2023/12/18 05:12:12;;;;;;;24.53;17.70;;;7.10;99.90;;;;;;5007014;28;20232;-81
2023/12/18 05:14:41;;;;;;;26.23;17.33;;;7.00;99.90;;;;;;5021333;28;20637;-81
2023/12/18 05:17:08;;;;;;;27.83;18.63;;;7.10;99.90;;;;;;5026727;28;20292;-81
2023/12/18 05:19:34;;;;;;;27.27;17.40;;;7.00;99.90;;;;;;5019452;28;20576;-82
2023/12/18 05:22:01;;;;;;;26.43;17.93;;;7.00;99.90;;;;;;5009937;28;20569;-80
2023/12/18 05:24:27;;;;;;;33.17;18.33;;;7.00;99.90;;;;;;5012103;28;20241;-80
2023/12/18 05:26:54;;;;;;;28.77;17.97;;;7.00;99.90;;;;;;5006441;28;20233;-80
2023/12/18 05:29:21;;;;;;;29.57;18.13;;;7.00;99.90;;;;;;4980475;28;20753;-80
2023/12/18 05:31:49;;;;;;;25.83;18.17;;;7.00;99.90;;;;;;4991431;28;20224;-81
2023/12/18 05:34:16;;;;;;;53.30;20.13;;;7.00;99.90;;;;;;5018772;28;20255;-83
2023/12/18 05:36:43;;;;;;;33.97;19.53;;;7.00;99.90;;;;;;5035403;28;20319;-84
2023/12/18 05:39:10;;;;;;;36.47;19.23;;;6.90;99.90;;;;;;5024880;28;20243;-82
2023/12/18 05:41:37;;;;;;;53.43;20.00;;;6.90;99.90;;;;;;5025703;28;20281;-81
2023/12/18 05:44:04;;;;;;;35.50;19.33;;;6.90;99.90;;;;;;5007473;28;20297;-81
2023/12/18 05:46:31;;;;;;;42.40;19.93;;;6.90;99.90;;;;;;5009279;28;20332;-81
2023/12/18 05:48:59;;;;;;;30.53;18.97;;;6.90;99.90;;;;;;4995339;28;20224;-81
2023/12/18 05:51:26;;;;;;;34.87;19.63;;;6.90;99.90;;;;;;5020087;28;20238;-80
2023/12/18 05:53:53;;;;;;;30.77;19.20;;;6.90;99.90;;;;;;5019008;28;20551;-81
2023/12/18 05:56:20;;;;;;;27.40;19.57;;;6.90;99.90;;;;;;5007269;28;20674;-81
2023/12/18 05:58:47;;;;;;;33.17;19.43;;;6.90;99.90;;;;;;5023377;28;20224;-82
2023/12/18 06:01:14;;;;;;;31.80;19.87;;;7.00;99.90;;;;;;5021756;28;20675;-81
2023/12/18 06:03:41;;;;;;;30.23;20.70;;;6.90;99.90;;;;;;5020626;28;20273;-81
2023/12/18 06:06:09;;;;;;;32.27;20.00;;;6.90;99.90;;;;;;5014384;28;20653;-81
2023/12/18 06:08:36;;;;;;;31.73;20.67;;;6.90;99.90;;;;;;5009411;28;20258;-80
2023/12/18 06:11:04;;;;;;;33.00;20.87;;;6.90;99.90;;;;;;5000319;28;20228;-80
2023/12/18 06:13:31;;;;;;;31.07;20.10;;;6.90;99.90;;;;;;5009532;28;20222;-81
2023/12/18 06:15:57;;;;;;;30.57;20.73;;;6.90;99.90;;;;;;5005650;28;20234;-81
2023/12/18 06:18:24;;;;;;;30.53;20.73;;;6.90;99.90;;;;;;4999570;28;20314;-79
2023/12/18 06:20:51;;;;;;;32.43;20.77;;;6.90;99.90;;;;;;5026240;28;20562;-81
2023/12/18 06:23:19;;;;;;;38.23;21.70;;;6.90;99.90;;;;;;5009313;28;20317;-82
2023/12/18 06:25:46;;;;;;;31.67;20.77;;;6.90;99.90;;;;;;5025473;28;20226;-81
2023/12/18 06:28:12;;;;;;;30.60;21.13;;;6.90;99.90;;;;;;4990052;28;20253;-81
2023/12/18 06:30:39;;;;;;;35.03;21.20;;;6.90;99.90;;;;;;4984241;28;20294;-81
2023/12/18 06:33:06;;;;;;;35.83;21.67;;;6.90;99.90;;;;;;4988257;28;20354;-80
2023/12/18 06:35:33;;;;;;;35.33;21.87;;;6.90;99.90;;;;;;5009861;28;20239;-81
2023/12/18 06:38:00;;;;;;;32.17;21.27;;;6.90;99.90;;;;;;5012489;28;20315;-81
2023/12/18 06:40:28;;;;;;;36.60;22.97;;;6.90;99.90;;;;;;5002444;28;20639;-81
2023/12/18 06:42:55;;;;;;;34.03;22.67;;;6.90;99.90;;;;;;5014442;28;20623;-82
2023/12/18 06:45:22;;;;;;;33.10;22.63;;;6.90;99.90;;;;;;4996364;28;20243;-81
2023/12/18 06:47:49;;;;;;;36.93;22.87;;;6.90;99.90;;;;;;5014804;28;20247;-81
2023/12/18 06:50:16;;;;;;;43.33;23.73;;;6.80;99.90;;;;;;5013439;28;20279;-81
2023/12/18 06:52:44;;;;;;;41.87;23.63;;;6.90;99.90;;;;;;5010179;28;20699;-81
2023/12/18 06:55:11;;;;;;;37.57;23.90;;;6.80;99.90;;;;;;5022573;28;20367;-80
2023/12/18 06:57:39;;;;;;;40.17;22.77;;;6.90;99.90;;;;;;5008023;28;20229;-81
2023/12/18 07:00:08;;;;;;;36.70;23.27;;;6.90;99.90;;;;;;5013716;28;20261;-81
2023/12/18 07:02:34;;;;;;;43.93;23.20;;;6.90;99.90;;;;;;5001439;28;20228;-81
2023/12/18 07:05:06;;;;;;;44.27;23.90;;;6.90;99.90;;;;;;5007505;28;20230;-80
2023/12/18 07:07:33;;;;;;;41.53;23.63;;;6.90;99.90;;;;;;5021333;28;20753;-81
2023/12/18 07:09:59;;;;;;;40.23;23.70;;;6.90;99.90;;;;;;5029153;28;20217;-81
2023/12/18 07:12:26;;;;;;;39.93;24.53;;;6.90;99.90;;;;;;5022373;28;20295;-81
2023/12/18 07:14:54;;;;;;;42.50;24.53;;;6.90;99.90;;;;;;5028726;28;20300;-83
2023/12/18 07:17:21;;;;;;;42.33;24.00;;;6.90;99.90;;;;;;5022250;28;20732;-81
2023/12/18 07:19:48;;;;;;;43.67;24.23;;;6.90;99.90;;;;;;5026626;28;20239;-81
2023/12/18 07:22:14;;;;;;;36.90;24.33;;;6.90;99.90;;;;;;5012959;28;20590;-82
2023/12/18 07:24:41;;;;;;;39.80;23.83;;;6.90;99.90;;;;;;5028810;28;20320;-82
2023/12/18 07:27:08;;;;;;;44.83;23.80;;;6.90;99.90;;;;;;5015928;28;20300;-80
2023/12/18 07:29:35;;;;;;;39.03;23.73;;;6.80;99.90;;;;;;5009987;28;20227;-81
2023/12/18 07:32:03;;;;;;;40.17;23.00;;;6.90;99.90;;;;;;5011632;28;20245;-81
2023/12/18 07:34:30;;;;;;;41.00;24.23;;;6.90;99.90;;;;;;5016866;28;20228;-82
2023/12/18 07:36:57;;;;;;;44.87;25.83;;;6.90;99.90;;;;;;5009914;28;20467;-81
2023/12/18 07:39:23;;;;;;;45.93;24.97;;;6.90;99.90;;;;;;5009162;28;20291;-82
2023/12/18 07:41:51;;;;;;;43.80;25.80;;;6.90;99.90;;;;;;5019355;28;20261;-82
2023/12/18 07:44:17;;;;;;;45.70;25.00;;;6.90;99.90;;;;;;5028508;28;20248;-81
2023/12/18 07:46:46;;;;;;;37.87;24.43;;;6.80;99.90;;;;;;5029155;28;20234;-82
2023/12/18 07:49:14;;;;;;;40.57;24.83;;;6.80;99.90;;;;;;5032577;28;20238;-81
2023/12/18 07:51:41;;;;;;;44.50;25.27;;;6.80;99.90;;;;;;5006417;28;20334;-80
2023/12/18 07:54:08;;;;;;;43.03;25.50;;;6.80;99.90;;;;;;5016233;28;20219;-82
2023/12/18 07:56:35;;;;;;;39.63;24.93;;;6.80;99.90;;;;;;5012051;28;20784;-82
2023/12/18 07:59:02;;;;;;;41.10;24.83;;;6.80;99.90;;;;;;5001738;28;20231;-82
2023/12/18 08:01:30;;;;;;;45.63;25.80;;;6.80;99.90;;;;;;5008737;28;20231;-82
2023/12/18 08:03:56;;;;;;;42.10;24.77;;;6.80;99.90;;;;;;5016505;28;20277;-82
2023/12/18 08:06:25;;;;;;;44.90;25.47;;;6.80;99.90;;;;;;5024562;28;20591;-82
2023/12/18 08:08:51;;;;;;;44.57;26.00;;;6.80;99.90;;;;;;5010724;28;20228;-82
2023/12/18 08:11:19;;;;;;;45.13;26.03;;;6.80;99.90;;;;;;5009324;28;20319;-80
2023/12/18 08:13:48;;;;;;;46.47;25.83;;;6.80;99.90;;;;;;5023060;28;20651;-81
2023/12/18 08:16:15;;;;;;;45.23;26.67;;;6.80;99.90;;;;;;5012095;28;20261;-80
2023/12/18 08:18:42;;;;;;;40.33;24.50;;;6.80;99.90;;;;;;5023965;28;20239;-80
2023/12/18 08:21:13;;;;;;;44.27;25.53;;;6.80;99.90;;;;;;5003169;28;20646;-80
2023/12/18 08:23:42;;;;;;;49.03;26.13;;;6.80;99.90;;;;;;5028383;28;20229;-82
2023/12/18 08:26:10;;;;;;;54.70;26.33;;;6.80;99.90;;;;;;5008152;28;20246;-79
2023/12/18 08:28:37;;;;;;;41.60;25.90;;;6.80;99.90;;;;;;5031239;28;20290;-80
2023/12/18 08:31:04;;;;;;;42.70;27.63;;;6.80;99.90;;;;;;5027035;28;20298;-81
2023/12/18 08:33:31;;;;;;;45.33;26.47;;;6.80;99.90;;;;;;5006373;28;20310;-79
2023/12/18 08:35:58;;;;;;;44.07;25.97;;;6.80;99.90;;;;;;5011158;28;20305;-82
2023/12/18 08:38:24;;;;;;;42.47;25.10;;;6.80;99.90;;;;;;5023038;28;20231;-80
2023/12/18 08:40:52;;;;;;;45.90;25.20;;;6.80;99.90;;;;;;4992807;28;20231;-82
2023/12/18 08:43:19;;;;;;;44.27;25.70;;;6.80;99.90;;;;;;5019798;28;20321;-81
2023/12/18 08:45:46;;;;;;;44.40;26.17;;;6.80;99.90;;;;;;5007777;28;20714;-81
2023/12/18 08:48:13;;;;;;;46.50;26.90;;;6.90;99.90;;;;;;5006843;28;20236;-80
2023/12/18 08:50:40;;;;;;;43.97;26.67;;;6.90;99.90;;;;;;5011722;28;20242;-80
2023/12/18 08:53:07;;;;;;;44.10;27.03;;;6.90;99.90;;;;;;5000130;28;20221;-81
2023/12/18 08:55:38;;;;;;;43.37;26.60;;;6.90;99.90;;;;;;5002983;28;20236;-81
2023/12/18 08:58:06;;;;;;;48.53;26.97;;;6.90;99.90;;;;;;5008841;28;20309;-81
2023/12/18 09:00:33;;;;;;;49.10;28.37;;;6.90;99.90;;;;;;5012178;28;20227;-79
2023/12/18 09:03:00;;;;;;;46.10;25.73;;;6.90;99.90;;;;;;5014235;28;20221;-81
2023/12/18 09:05:26;;;;;;;43.53;26.70;;;6.90;99.90;;;;;;5015151;28;20229;-80
2023/12/18 09:07:53;;;;;;;44.67;26.67;;;6.90;99.90;;;;;;5031594;28;20319;-81
2023/12/18 09:10:22;;;;;;;45.77;25.83;;;6.90;99.90;;;;;;5027267;28;20246;-80
2023/12/18 09:12:48;;;;;;;50.87;27.70;;;6.90;99.90;;;;;;5033851;28;20226;-81
2023/12/18 09:15:17;;;;;;;50.40;27.53;;;6.90;99.90;;;;;;4996212;28;20255;-79
2023/12/18 09:17:44;;;;;;;48.80;26.57;;;6.90;99.90;;;;;;5012368;28;20298;-80
2023/12/18 09:20:11;;;;;;;46.60;26.80;;;6.90;99.90;;;;;;5020150;28;20255;-80
2023/12/18 09:22:38;;;;;;;46.90;26.73;;;6.90;99.90;;;;;;5012560;28;20803;-82
2023/12/18 09:25:05;;;;;;;51.50;27.40;;;6.90;99.90;;;;;;4990796;28;20366;-81
2023/12/18 09:27:32;;;;;;;49.33;27.43;;;6.90;99.90;;;;;;5012353;28;20320;-82
2023/12/18 09:29:59;;;;;;;48.70;27.93;;;6.90;99.90;;;;;;4997709;28;20258;-81
2023/12/18 09:32:27;;;;;;;47.30;26.43;;;6.90;99.90;;;;;;5012712;28;20412;-80
2023/12/18 09:34:54;;;;;;;42.23;27.33;;;6.90;99.90;;;;;;4993976;28;20339;-81
2023/12/18 09:37:21;;;;;;;49.10;27.03;;;7.00;99.90;;;;;;5012809;28;20723;-82
2023/12/18 09:39:48;;;;;;;43.93;26.03;;;6.90;99.90;;;;;;5022662;28;20757;-80
2023/12/18 09:42:14;;;;;;;52.00;26.53;;;7.00;99.90;;;;;;5025980;28;20642;-83
2023/12/18 09:44:43;;;;;;;44.93;24.93;;;6.90;99.90;;;;;;5029334;28;20224;-81
2023/12/18 09:47:10;;;;;;;46.53;25.47;;;7.00;99.90;;;;;;5002582;28;20325;-82
2023/12/18 09:49:38;;;;;;;45.80;26.33;;;7.00;99.90;;;;;;5032956;28;20223;-81
2023/12/18 09:52:08;;;;;;;49.23;25.93;;;7.00;99.90;;;;;;5027268;28;20280;-82
2023/12/18 09:54:35;;;;;;;44.87;26.20;;;7.10;99.90;;;;;;5033360;28;20709;-81
2023/12/18 09:57:06;;;;;;;44.60;24.87;;;7.10;99.90;;;;;;5013973;28;20347;-83
2023/12/18 09:59:33;;;;;;;44.30;25.97;;;7.10;99.90;;;;;;5027265;28;20692;-81
2023/12/18 10:02:00;;;;;;;42.17;25.53;;;7.10;99.90;;;;;;5008647;28;20497;-83
2023/12/18 10:04:27;;;;;;;47.20;25.33;;;7.10;99.90;;;;;;5006716;28;20259;-82
2023/12/18 10:06:55;;;;;;;44.73;24.97;;;7.10;99.90;;;;;;5009248;28;20716;-82
2023/12/18 10:09:22;;;;;;;43.90;25.03;;;7.10;99.90;;;;;;5014991;28;20248;-82
2023/12/18 10:11:49;;;;;;;42.97;24.53;;;7.10;99.90;;;;;;5008466;28;20567;-81
2023/12/18 10:14:16;;;;;;;45.23;24.83;;;7.20;99.90;;;;;;5019303;28;20468;-82
2023/12/18 10:16:44;;;;;;;39.80;25.03;;;7.20;99.90;;;;;;5022020;28;20228;-82
2023/12/18 10:19:12;;;;;;;43.93;24.00;;;7.20;99.90;;;;;;5023873;28;20743;-81
2023/12/18 10:21:39;;;;;;;51.60;25.17;;;7.20;99.90;;;;;;5033537;28;20674;-81
2023/12/18 10:24:09;;;;;;;42.60;24.10;;;7.30;99.90;;;;;;5022505;28;20297;-80
2023/12/18 10:26:36;;;;;;;47.10;26.03;;;7.30;99.90;;;;;;5023788;28;20229;-81
2023/12/18 10:29:03;;;;;;;43.53;23.43;;;7.30;99.90;;;;;;5029003;28;20326;-82
2023/12/18 10:31:30;;;;;;;36.87;23.23;;;7.30;99.90;;;;;;5030318;28;20310;-82
2023/12/18 10:33:58;;;;;;;41.60;23.70;;;7.30;99.90;;;;;;5029479;28;20224;-79
2023/12/18 10:36:26;;;;;;;38.87;22.67;;;7.40;99.90;;;;;;5031090;28;20321;-83
2023/12/18 10:38:53;;;;;;;43.07;24.63;;;7.40;99.90;;;;;;5007371;28;20246;-82
2023/12/18 10:41:22;;;;;;;45.33;24.03;;;7.40;99.90;;;;;;5008477;28;20225;-82
2023/12/18 10:43:50;;;;;;;42.23;23.27;;;7.40;99.90;;;;;;5030441;28;20226;-84
2023/12/18 10:46:17;;;;;;;41.20;22.57;;;7.40;99.90;;;;;;5017106;28;20240;-82
2023/12/18 10:48:48;;;;;;;43.93;23.37;;;7.40;99.90;;;;;;5028103;28;20230;-82
2023/12/18 10:51:14;;;;;;;43.17;23.97;;;7.40;99.90;;;;;;5030415;28;20320;-83
2023/12/18 10:53:43;;;;;;;42.83;23.53;;;7.40;99.90;;;;;;5012248;28;20222;-82
2023/12/18 10:56:11;;;;;;;38.60;22.77;;;7.40;99.90;;;;;;5011245;28;20241;-80
2023/12/18 10:58:42;;;;;;;39.20;22.80;;;7.40;99.90;;;;;;5004706;28;20233;-82
2023/12/18 11:01:10;;;;;;;45.17;23.73;;;7.40;99.90;;;;;;5011678;28;20224;-81
2023/12/18 11:03:37;;;;;;;40.13;23.47;;;7.50;99.90;;;;;;5016256;28;20256;-80
2023/12/18 11:06:05;;;;;;;43.87;24.07;;;7.50;99.90;;;;;;5007187;28;20798;-82
2023/12/18 11:08:33;;;;;;;41.23;23.23;;;7.50;99.90;;;;;;4997450;28;20643;-82
2023/12/18 11:11:01;;;;;;;39.37;22.90;;;7.50;99.90;;;;;;5023221;28;20757;-82
2023/12/18 11:13:30;;;;;;;40.90;22.77;;;7.50;99.90;;;;;;5015808;28;20792;-81
2023/12/18 11:16:06;;;;;;;38.77;23.17;;;7.40;99.90;;;;;;5003442;28;20299;-83
2023/12/18 11:18:49;;;;;;;39.67;23.97;;;7.50;99.90;;;;;;4992112;28;20278;-82
2023/12/18 11:21:16;;;;;;;42.47;24.00;;;7.40;99.90;;;;;;5016528;28;20235;-82
2023/12/18 11:23:43;;;;;;;41.83;24.10;;;7.50;99.90;;;;;;5002584;28;20231;-82
2023/12/18 11:26:11;;;;;;;40.33;23.87;;;7.40;99.90;;;;;;5006900;28;20228;-82
2023/12/18 11:28:38;;;;;;;46.47;23.87;;;7.40;99.90;;;;;;5010379;28;20227;-81
2023/12/18 11:31:08;;;;;;;39.50;24.07;;;7.40;99.90;;;;;;5016308;28;20282;-82
2023/12/18 11:33:35;;;;;;;43.07;24.73;;;7.40;99.90;;;;;;4997425;28;20221;-82
2023/12/18 11:36:02;;;;;;;43.90;25.27;;;7.40;99.90;;;;;;4996636;28;20225;-82
2023/12/18 11:38:32;;;;;;;38.93;22.73;;;7.40;99.90;;;;;;4990678;28;20243;-83
2023/12/18 11:41:00;;;;;;;41.90;24.10;;;7.40;99.90;;;;;;5001584;28;20215;-80
2023/12/18 11:43:37;;;;;;;46.57;25.07;;;7.40;99.90;;;;;;5014447;28;20265;-80
2023/12/18 11:46:07;;;;;;;42.90;23.40;;;7.40;99.90;;;;;;5021294;28;20248;-81
2023/12/18 11:48:35;;;;;;;43.47;24.97;;;7.40;99.90;;;;;;5026856;28;20620;-80
2023/12/18 11:51:03;;;;;;;40.83;24.87;;;7.40;99.90;;;;;;5017937;28;20230;-80
2023/12/18 11:53:34;;;;;;;40.60;24.63;;;7.40;99.90;;;;;;5013021;28;20299;-81
2023/12/18 11:56:07;;;;;;;45.40;24.37;;;7.40;99.90;;;;;;5030620;28;20337;-81
2023/12/18 11:58:35;;;;;;;41.40;23.83;;;7.40;99.90;;;;;;5017179;28;20219;-80
2023/12/18 12:01:02;;;;;;;37.70;23.13;;;7.40;99.90;;;;;;5037212;28;20227;-81
2023/12/18 12:03:33;;;;;;;40.83;24.23;;;7.40;99.90;;;;;;5005798;28;20258;-81
2023/12/18 12:06:00;;;;;;;42.07;24.87;;;7.50;99.90;;;;;;5012564;28;20233;-79
2023/12/18 12:08:27;;;;;;;38.50;24.03;;;7.50;99.90;;;;;;5032339;28;20248;-80
2023/12/18 12:10:57;;;;;;;39.70;23.27;;;7.50;99.90;;;;;;5002683;28;20215;-81
2023/12/18 12:13:26;;;;;;;39.40;23.90;;;7.50;99.90;;;;;;5015871;28;20395;-80
2023/12/18 12:15:54;;;;;;;40.13;24.77;;;7.50;99.90;;;;;;5009767;28;20819;-80
2023/12/18 12:18:21;;;;;;;40.60;24.13;;;7.50;99.90;;;;;;5014301;28;20240;-81
2023/12/18 12:20:50;;;;;;;41.03;23.93;;;7.50;99.90;;;;;;5034064;28;20216;-80
2023/12/18 12:23:17;;;;;;;40.03;24.57;;;7.50;99.90;;;;;;5028881;28;20272;-79
2023/12/18 12:25:46;;;;;;;42.33;24.33;;;7.50;99.90;;;;;;5027338;28;20291;-81
2023/12/18 12:28:14;;;;;;;36.83;23.23;;;7.50;99.90;;;;;;5025414;28;20317;-80
2023/12/18 12:30:41;;;;;;;43.90;24.07;;;7.50;99.90;;;;;;5029418;28;20235;-81
2023/12/18 12:33:08;;;;;;;39.07;23.00;;;7.50;99.90;;;;;;5033276;28;20588;-80
2023/12/18 12:35:35;;;;;;;40.80;22.73;;;7.50;99.90;;;;;;5026404;28;20496;-81
2023/12/18 12:38:05;;;;;;;40.87;22.87;;;7.50;99.90;;;;;;5019501;28;20243;-81